x

Destruction Island, Wa (desw1) Weather Station

5:00 - Wed 23rd Aug 2017 All times are PDT. -7 hours from GMT.

  • Wind
    25mph, 28mph gusts
  • Luft Temp 54°f
  • Sea Pressure 1017.4mb
  • Destruction Island, Wa
  • Destruction Island, Wa

More Historic Weather Station data

Upgrade to MSW Pro to gain access to the past 30 days of data for over 8000 Wavebouys and Weather Stations around the globe.

Join

Comparision Forecast

View Surf forecast
   
Mi 08/23 5:00 25 28 mph 1017.4mb 54f
4:00 11 13 mph 1017.6mb 55f
3:00 14 14 mph 1017.8mb 55f
2:00 6 7 mph 1017.8mb 60f
1:00 9 9 mph 1017.9mb 56f
12:00 7 8 mph 1018mb 57f
11:00 2 3 mph 1018mb 56f
10:00  -  2 mph 1017.9mb 58f
9:00  -  2 mph 1017.9mb 61f
8:00 8 8 mph 1017.8mb 56f
7:00 7 7 mph 1017.9mb 53f
6:00 3 5 mph 1017.8mb 54f
5:00 3 5 mph 1017.9mb 54f
4:00 6 6 mph 1018mb 55f
3:00 8 8 mph 1018.2mb 55f
2:00 9 9 mph 1018.5mb 54f
1:00 10 11 mph 1018.8mb 55f
12:00 10 11 mph 1018.7mb 54f
Di 08/22 11:00 11 11 mph 1018.6mb 54f
10:00 14 14 mph 1018.4mb 56f
9:00 15 15 mph 1018.5mb 56f
8:00 16 16 mph 1018.2mb 54f
7:00 21 22 mph 1017.8mb 56f
6:00 13 13 mph 1017.9mb 57f
5:00 8 9 mph 1018.6mb 58f
4:00 10 10 mph 1018.9mb 57f
3:00 7 8 mph 1018.8mb 56f
2:00 7 8 mph 1018.7mb 57f
1:00 7 8 mph 1018.7mb 56f
12:00 3 5 mph 1018.2mb 55f
11:00 2 3 mph 1017.9mb 55f
10:00 7 7 mph 1017.8mb 53f
9:00 8 8 mph 1017.5mb 51f
8:00 16 17 mph 1017.1mb 50f
7:00 9 9 mph 1016.5mb 50f
6:00 13 13 mph 1016.2mb 51f
5:00 13 13 mph 1016.1mb 51f
4:00 14 14 mph 1016mb 50f
3:00 14 14 mph 1016mb 51f
2:00 13 14 mph 1016.2mb 51f
1:00 15 16 mph 1016.3mb 51f
12:00 21 22 mph 1016.1mb 52f
Mo 08/21 11:00 23 24 mph 1016.2mb 52f
10:00 25 26 mph 1016.1mb 52f
9:00 29 31 mph 1015.9mb 54f
8:00 28 30 mph 1016.1mb 54f
7:00 29 31 mph 1016.3mb 55f
6:00 28 30 mph 1016.7mb 55f
5:00 24 25 mph 1017.6mb 55f
4:00 8 11 mph 1018.7mb 55f
3:00 10 11 mph 1019.3mb 57f
2:00 9 11 mph 1019.8mb 56f
1:00 9 9 mph 1020.2mb 53f
12:00 13 13 mph 1020.4mb 53f
11:00 7 7 mph 1020.3mb 52f
10:00 11 11 mph 1020.5mb 51f
9:00 11 11 mph 1020.5mb 51f
8:00 11 13 mph 1020.6mb 52f
7:00 11 11 mph 1020.3mb 52f
6:00 7 7 mph 1020.3mb 52f
5:00 10 11 mph 1020.2mb 53f
4:00 18 18 mph 1020.5mb 53f
3:00 14 15 mph 1020.4mb 54f
2:00 14 14 mph 1020.7mb 54f
1:00 16 16 mph 1020.8mb 54f
12:00 20 20 mph 1020.8mb 54f
So 08/20 11:00 17 17 mph 1020.8mb 55f
10:00 21 22 mph 1020.8mb 55f
9:00 23 23 mph 1020.7mb 55f
8:00 30 31 mph 1020.2mb 56f
7:00 28 29 mph 1020.2mb 56f
6:00 24 25 mph 1020.4mb 56f
5:00 23 24 mph 1020.8mb 57f
4:00 22 23 mph 1021.6mb 58f
3:00 20 20 mph 1021.6mb 58f
2:00 17 18 mph 1022.1mb 57f
1:00 15 15 mph 1022mb 55f
12:00 11 11 mph 1022.2mb 55f
11:00 7 7 mph 1022.3mb 56f
10:00 2 3 mph 1022.5mb 55f
9:00 3 5 mph 1022.6mb 55f
8:00 6 7 mph 1022.3mb 54f
7:00 5 6 mph 1022.1mb 53f
6:00 8 8 mph 1022.2mb 53f
5:00 10 11 mph 1022.2mb 54f
4:00 11 11 mph 1022.5mb 53f
3:00 11 13 mph 1022.9mb 54f
2:00 11 11 mph 1022.9mb 54f